This is the latest recevied weather packets stored in our database for station/object W8RD. If no packets are shown the sender has not sent any weather packets the latest 10 day(s).
| Time | Temp. | Humidity | Pressure | Rain* | Wind** | Luminosity | Snow |
|---|---|---|---|---|---|---|---|
| 1777674125 | 27.22° C | 73% | 1011.4 hPa | 0 mm | - | 108 W/m² | - |
| 1777673525 | 27.78° C | 72% | 1011.4 hPa | 0 mm | - | 54 W/m² | - |
| 1777672317 | 28.33° C | 72% | 1011.2 hPa | 0 mm | - | 135 W/m² | - |
| 1777670513 | 29.44° C | 65% | 1011.4 hPa | 0 mm | - | 371 W/m² | - |
| 1777669913 | 30° C | 61% | 1011.6 hPa | 0 mm | - | 408 W/m² | - |
| 1777668712 | 29.44° C | 63% | 1011.6 hPa | 0 mm | - | 462 W/m² | - |
| 1777668109 | 28.89° C | 65% | 1011.6 hPa | 0 mm | - | 439 W/m² | - |
| 1777666904 | 28.33° C | 68% | 1011.7 hPa | 0 mm | - | 178 W/m² | - |
| 1777666303 | 28.89° C | 66% | 1011.7 hPa | 0 mm | - | 293 W/m² | - |
| 1777665703 | 28.89° C | 67% | 1011.9 hPa | 0 mm | - | 389 W/m² | - |
| 1777663895 | 30.56° C | 62% | 1012.6 hPa | 0 mm | - | 717 W/m² | - |
| 1777663294 | 30.56° C | 61% | 1012.9 hPa | 0 mm | - | 728 W/m² | - |
| 1777662695 | 30.56° C | 62% | 1013 hPa | 0 mm | - | 587 W/m² | - |
| 1777662092 | 30.56° C | 62% | 1013.1 hPa | 0 mm | - | 499 W/m² | - |
| 1777661490 | 31.11° C | 59% | 1013.5 hPa | 0 mm | - | 815 W/m² | - |
| 1777660887 | 31.11° C | 59% | 1013.4 hPa | 0 mm | - | 808 W/m² | - |
| 1777660286 | 30.56° C | 62% | 1013.9 hPa | 0 mm | - | 855 W/m² | - |
| 1777659686 | 30° C | 63% | 1013.9 hPa | 0 mm | - | 882 W/m² | - |
| 1777659085 | 30° C | 66% | 1013.9 hPa | 0 mm | - | 374 W/m² | - |
| 1777658485 | 30.56° C | 64% | 1014 hPa | 0 mm | - | 753 W/m² | - |
| 1777657885 | 30.56° C | 63% | 1014 hPa | 0 mm | - | 908 W/m² | - |
| 1777656685 | 30.56° C | 64% | 1014.1 hPa | 0 mm | - | 918 W/m² | - |
| 1777656081 | 30° C | 65% | 1014.3 hPa | 0 mm | - | 835 W/m² | - |
| 1777655481 | 29.44° C | 68% | 1014.2 hPa | 0 mm | - | 894 W/m² | - |
| 1777654881 | 29.44° C | 68% | 1014.4 hPa | 0 mm | - | 861 W/m² | - |
* Rain latest hour (hover to see other rain measurements)
** Current wind speed in m/s (hover to see current wind gust speed)